sensor_id;sensor_type;location;lat;lon;timestamp;P1;durP1;ratioP1;P2;durP2;ratioP2
19664;SDS011;9980;51.020;7.772;2023-08-31T00:01:17;5.60;;;5.10;;
19664;SDS011;9980;51.020;7.772;2023-08-31T00:03:44;6.10;;;5.50;;
19664;SDS011;9980;51.020;7.772;2023-08-31T00:06:11;4.90;;;4.43;;
19664;SDS011;9980;51.020;7.772;2023-08-31T00:08:38;4.57;;;4.00;;
19664;SDS011;9980;51.020;7.772;2023-08-31T00:11:05;4.13;;;3.73;;
19664;SDS011;9980;51.020;7.772;2023-08-31T00:13:32;9.73;;;4.97;;
19664;SDS011;9980;51.020;7.772;2023-08-31T00:15:59;4.23;;;3.80;;
19664;SDS011;9980;51.020;7.772;2023-08-31T00:18:26;5.57;;;5.07;;
19664;SDS011;9980;51.020;7.772;2023-08-31T00:20:53;5.50;;;5.00;;
19664;SDS011;9980;51.020;7.772;2023-08-31T00:23:20;4.50;;;4.10;;
19664;SDS011;9980;51.020;7.772;2023-08-31T00:25:47;5.00;;;3.77;;
19664;SDS011;9980;51.020;7.772;2023-08-31T00:28:15;5.40;;;4.90;;
19664;SDS011;9980;51.020;7.772;2023-08-31T00:30:45;4.60;;;3.97;;
19664;SDS011;9980;51.020;7.772;2023-08-31T00:33:13;4.43;;;4.03;;
19664;SDS011;9980;51.020;7.772;2023-08-31T00:35:41;6.63;;;5.67;;
19664;SDS011;9980;51.020;7.772;2023-08-31T00:38:12;5.30;;;4.90;;
19664;SDS011;9980;51.020;7.772;2023-08-31T00:40:41;5.43;;;4.93;;
19664;SDS011;9980;51.020;7.772;2023-08-31T00:43:12;5.17;;;4.67;;
19664;SDS011;9980;51.020;7.772;2023-08-31T00:45:44;3.87;;;3.57;;
19664;SDS011;9980;51.020;7.772;2023-08-31T00:48:15;5.73;;;5.20;;
19664;SDS011;9980;51.020;7.772;2023-08-31T00:50:44;4.60;;;4.20;;
19664;SDS011;9980;51.020;7.772;2023-08-31T00:53:12;7.73;;;7.03;;
19664;SDS011;9980;51.020;7.772;2023-08-31T00:55:41;7.43;;;6.33;;
19664;SDS011;9980;51.020;7.772;2023-08-31T00:58:10;6.97;;;6.27;;
19664;SDS011;9980;51.020;7.772;2023-08-31T01:04:38;7.23;;;6.53;;
19664;SDS011;9980;51.020;7.772;2023-08-31T01:06:55;8.97;;;8.07;;
19664;SDS011;9980;51.020;7.772;2023-08-31T01:09:59;10.00;;;8.97;;
19664;SDS011;9980;51.020;7.772;2023-08-31T01:12:40;11.30;;;9.73;;
19664;SDS011;9980;51.020;7.772;2023-08-31T01:15:20;10.80;;;9.70;;
19664;SDS011;9980;51.020;7.772;2023-08-31T01:17:50;11.87;;;9.67;;
19664;SDS011;9980;51.020;7.772;2023-08-31T01:20:26;7.77;;;7.07;;
19664;SDS011;9980;51.020;7.772;2023-08-31T01:23:10;9.03;;;7.37;;
19664;SDS011;9980;51.020;7.772;2023-08-31T01:25:45;10.63;;;8.90;;
19664;SDS011;9980;51.020;7.772;2023-08-31T01:28:14;9.73;;;8.33;;
19664;SDS011;9980;51.020;7.772;2023-08-31T01:30:42;7.80;;;7.00;;
19664;SDS011;9980;51.020;7.772;2023-08-31T01:33:10;9.07;;;7.67;;
19664;SDS011;9980;51.020;7.772;2023-08-31T01:35:45;8.00;;;7.20;;
19664;SDS011;9980;51.020;7.772;2023-08-31T01:38:21;8.33;;;7.13;;
19664;SDS011;9980;51.020;7.772;2023-08-31T01:40:57;8.93;;;8.13;;
19664;SDS011;9980;51.020;7.772;2023-08-31T01:43:35;9.90;;;8.03;;
19664;SDS011;9980;51.020;7.772;2023-08-31T01:46:05;9.03;;;8.13;;
19664;SDS011;9980;51.020;7.772;2023-08-31T01:48:39;9.10;;;8.13;;
19664;SDS011;9980;51.020;7.772;2023-08-31T01:51:07;8.97;;;8.07;;
19664;SDS011;9980;51.020;7.772;2023-08-31T01:53:35;7.83;;;7.13;;
19664;SDS011;9980;51.020;7.772;2023-08-31T01:56:02;7.50;;;5.93;;
19664;SDS011;9980;51.020;7.772;2023-08-31T01:58:31;5.93;;;5.43;;
19664;SDS011;9980;51.020;7.772;2023-08-31T02:00:58;7.37;;;6.67;;
19664;SDS011;9980;51.020;7.772;2023-08-31T02:03:25;8.17;;;7.37;;
19664;SDS011;9980;51.020;7.772;2023-08-31T02:05:52;10.83;;;7.83;;
19664;SDS011;9980;51.020;7.772;2023-08-31T02:08:20;9.83;;;8.20;;
19664;SDS011;9980;51.020;7.772;2023-08-31T02:10:47;8.33;;;7.50;;
19664;SDS011;9980;51.020;7.772;2023-08-31T02:13:21;9.03;;;8.10;;
19664;SDS011;9980;51.020;7.772;2023-08-31T02:15:51;11.20;;;7.73;;
19664;SDS011;9980;51.020;7.772;2023-08-31T02:18:19;9.60;;;7.30;;
19664;SDS011;9980;51.020;7.772;2023-08-31T02:20:46;9.10;;;7.60;;
19664;SDS011;9980;51.020;7.772;2023-08-31T02:23:13;10.60;;;7.20;;
19664;SDS011;9980;51.020;7.772;2023-08-31T02:25:40;9.30;;;7.43;;
19664;SDS011;9980;51.020;7.772;2023-08-31T02:28:07;8.10;;;7.30;;
19664;SDS011;9980;51.020;7.772;2023-08-31T02:30:36;10.03;;;6.90;;
19664;SDS011;9980;51.020;7.772;2023-08-31T02:33:04;9.20;;;7.47;;
19664;SDS011;9980;51.020;7.772;2023-08-31T02:35:32;9.37;;;6.77;;
19664;SDS011;9980;51.020;7.772;2023-08-31T02:37:59;8.70;;;7.30;;
19664;SDS011;9980;51.020;7.772;2023-08-31T02:40:26;8.67;;;7.43;;
19664;SDS011;9980;51.020;7.772;2023-08-31T02:42:53;7.80;;;7.00;;
19664;SDS011;9980;51.020;7.772;2023-08-31T02:45:20;8.93;;;6.70;;
19664;SDS011;9980;51.020;7.772;2023-08-31T02:47:47;10.53;;;7.77;;
19664;SDS011;9980;51.020;7.772;2023-08-31T02:50:16;8.80;;;7.97;;
19664;SDS011;9980;51.020;7.772;2023-08-31T02:52:43;9.73;;;8.40;;
19664;SDS011;9980;51.020;7.772;2023-08-31T02:55:10;7.53;;;6.87;;
19664;SDS011;9980;51.020;7.772;2023-08-31T02:57:37;8.77;;;7.80;;
19664;SDS011;9980;51.020;7.772;2023-08-31T03:00:04;9.13;;;7.60;;
19664;SDS011;9980;51.020;7.772;2023-08-31T03:02:36;8.63;;;7.73;;
19664;SDS011;9980;51.020;7.772;2023-08-31T03:05:03;7.80;;;6.53;;
19664;SDS011;9980;51.020;7.772;2023-08-31T03:07:30;9.77;;;8.27;;
19664;SDS011;9980;51.020;7.772;2023-08-31T03:09:57;8.43;;;7.57;;
19664;SDS011;9980;51.020;7.772;2023-08-31T03:12:24;8.47;;;7.13;;
19664;SDS011;9980;51.020;7.772;2023-08-31T03:14:52;10.37;;;7.77;;
19664;SDS011;9980;51.020;7.772;2023-08-31T03:17:19;9.20;;;8.10;;
19664;SDS011;9980;51.020;7.772;2023-08-31T03:19:46;7.90;;;7.20;;
19664;SDS011;9980;51.020;7.772;2023-08-31T03:22:13;8.60;;;7.77;;
19664;SDS011;9980;51.020;7.772;2023-08-31T03:24:40;9.43;;;8.43;;
19664;SDS011;9980;51.020;7.772;2023-08-31T03:27:07;10.10;;;7.83;;
19664;SDS011;9980;51.020;7.772;2023-08-31T03:29:34;7.37;;;6.67;;
19664;SDS011;9980;51.020;7.772;2023-08-31T03:32:01;9.90;;;8.00;;
19664;SDS011;9980;51.020;7.772;2023-08-31T03:34:31;9.27;;;8.07;;
19664;SDS011;9980;51.020;7.772;2023-08-31T03:36:59;8.07;;;7.27;;
19664;SDS011;9980;51.020;7.772;2023-08-31T03:39:27;6.40;;;5.77;;
19664;SDS011;9980;51.020;7.772;2023-08-31T03:41:54;9.00;;;7.33;;
19664;SDS011;9980;51.020;7.772;2023-08-31T03:44:21;8.63;;;7.83;;
19664;SDS011;9980;51.020;7.772;2023-08-31T03:46:49;8.73;;;7.83;;
19664;SDS011;9980;51.020;7.772;2023-08-31T03:49:16;8.57;;;7.70;;
19664;SDS011;9980;51.020;7.772;2023-08-31T03:51:44;8.50;;;7.60;;
19664;SDS011;9980;51.020;7.772;2023-08-31T03:54:11;9.80;;;7.37;;
19664;SDS011;9980;51.020;7.772;2023-08-31T03:56:39;6.00;;;5.50;;
19664;SDS011;9980;51.020;7.772;2023-08-31T03:59:06;7.20;;;6.50;;
19664;SDS011;9980;51.020;7.772;2023-08-31T04:01:33;7.10;;;6.33;;
19664;SDS011;9980;51.020;7.772;2023-08-31T04:04:00;9.17;;;6.20;;
19664;SDS011;9980;51.020;7.772;2023-08-31T04:06:29;5.60;;;4.70;;
19664;SDS011;9980;51.020;7.772;2023-08-31T04:08:56;5.87;;;5.23;;
19664;SDS011;9980;51.020;7.772;2023-08-31T04:11:24;5.93;;;5.37;;
19664;SDS011;9980;51.020;7.772;2023-08-31T04:13:52;6.70;;;5.80;;
19664;SDS011;9980;51.020;7.772;2023-08-31T04:16:19;6.80;;;6.10;;
19664;SDS011;9980;51.020;7.772;2023-08-31T04:18:46;5.97;;;5.47;;
19664;SDS011;9980;51.020;7.772;2023-08-31T04:21:17;5.40;;;4.93;;
19664;SDS011;9980;51.020;7.772;2023-08-31T04:23:44;6.60;;;5.10;;
19664;SDS011;9980;51.020;7.772;2023-08-31T04:26:12;6.63;;;5.87;;
19664;SDS011;9980;51.020;7.772;2023-08-31T04:28:40;5.10;;;4.70;;
19664;SDS011;9980;51.020;7.772;2023-08-31T04:31:08;5.00;;;4.60;;
19664;SDS011;9980;51.020;7.772;2023-08-31T04:33:37;4.27;;;3.87;;
19664;SDS011;9980;51.020;7.772;2023-08-31T04:36:05;5.10;;;4.40;;
19664;SDS011;9980;51.020;7.772;2023-08-31T04:38:33;6.17;;;4.47;;
19664;SDS011;9980;51.020;7.772;2023-08-31T04:41:00;4.90;;;4.20;;
19664;SDS011;9980;51.020;7.772;2023-08-31T04:43:28;5.37;;;4.87;;
19664;SDS011;9980;51.020;7.772;2023-08-31T04:45:55;4.97;;;3.97;;
19664;SDS011;9980;51.020;7.772;2023-08-31T04:48:22;6.77;;;5.97;;
19664;SDS011;9980;51.020;7.772;2023-08-31T04:50:49;5.03;;;4.57;;
19664;SDS011;9980;51.020;7.772;2023-08-31T04:53:16;5.03;;;4.63;;
19664;SDS011;9980;51.020;7.772;2023-08-31T04:55:43;8.53;;;6.13;;
19664;SDS011;9980;51.020;7.772;2023-08-31T04:58:10;7.07;;;5.43;;
19664;SDS011;9980;51.020;7.772;2023-08-31T05:00:37;7.83;;;6.20;;
19664;SDS011;9980;51.020;7.772;2023-08-31T05:03:05;7.87;;;5.67;;
19664;SDS011;9980;51.020;7.772;2023-08-31T05:05:32;5.40;;;4.70;;
19664;SDS011;9980;51.020;7.772;2023-08-31T05:08:01;6.60;;;5.40;;
19664;SDS011;9980;51.020;7.772;2023-08-31T05:10:29;6.47;;;5.83;;
19664;SDS011;9980;51.020;7.772;2023-08-31T05:12:56;10.77;;;5.47;;
19664;SDS011;9980;51.020;7.772;2023-08-31T05:15:23;6.07;;;5.30;;
19664;SDS011;9980;51.020;7.772;2023-08-31T05:17:53;7.23;;;6.40;;
19664;SDS011;9980;51.020;7.772;2023-08-31T05:20:21;8.90;;;6.03;;
19664;SDS011;9980;51.020;7.772;2023-08-31T05:22:49;7.20;;;6.57;;
19664;SDS011;9980;51.020;7.772;2023-08-31T05:25:16;8.27;;;6.60;;
19664;SDS011;9980;51.020;7.772;2023-08-31T05:27:44;10.33;;;6.17;;
19664;SDS011;9980;51.020;7.772;2023-08-31T05:30:11;6.80;;;6.20;;
19664;SDS011;9980;51.020;7.772;2023-08-31T05:32:38;8.73;;;6.53;;
19664;SDS011;9980;51.020;7.772;2023-08-31T05:35:05;10.27;;;6.20;;
19664;SDS011;9980;51.020;7.772;2023-08-31T05:37:33;6.40;;;5.77;;
19664;SDS011;9980;51.020;7.772;2023-08-31T05:40:02;7.13;;;6.53;;
19664;SDS011;9980;51.020;7.772;2023-08-31T05:42:32;7.13;;;6.53;;
19664;SDS011;9980;51.020;7.772;2023-08-31T05:44:59;8.40;;;7.30;;
19664;SDS011;9980;51.020;7.772;2023-08-31T05:47:26;8.40;;;7.13;;
19664;SDS011;9980;51.020;7.772;2023-08-31T05:49:53;11.20;;;8.27;;
19664;SDS011;9980;51.020;7.772;2023-08-31T05:52:20;11.50;;;8.50;;
19664;SDS011;9980;51.020;7.772;2023-08-31T05:54:47;8.60;;;7.70;;
19664;SDS011;9980;51.020;7.772;2023-08-31T05:57:18;12.30;;;9.53;;
19664;SDS011;9980;51.020;7.772;2023-08-31T05:59:46;11.13;;;9.33;;
19664;SDS011;9980;51.020;7.772;2023-08-31T06:02:13;11.67;;;10.07;;
19664;SDS011;9980;51.020;7.772;2023-08-31T06:04:40;11.57;;;10.37;;
19664;SDS011;9980;51.020;7.772;2023-08-31T06:07:08;11.07;;;9.23;;
19664;SDS011;9980;51.020;7.772;2023-08-31T06:09:34;9.37;;;8.03;;
19664;SDS011;9980;51.020;7.772;2023-08-31T06:12:01;10.63;;;9.53;;
19664;SDS011;9980;51.020;7.772;2023-08-31T06:14:29;9.93;;;8.93;;
19664;SDS011;9980;51.020;7.772;2023-08-31T06:16:56;10.80;;;9.17;;
19664;SDS011;9980;51.020;7.772;2023-08-31T06:19:23;10.03;;;9.03;;
19664;SDS011;9980;51.020;7.772;2023-08-31T06:21:50;10.10;;;7.97;;
19664;SDS011;9980;51.020;7.772;2023-08-31T06:24:17;10.07;;;9.00;;
19664;SDS011;9980;51.020;7.772;2023-08-31T06:26:44;9.83;;;8.77;;
19664;SDS011;9980;51.020;7.772;2023-08-31T06:29:10;9.00;;;8.10;;
19664;SDS011;9980;51.020;7.772;2023-08-31T06:31:38;10.60;;;8.47;;
19664;SDS011;9980;51.020;7.772;2023-08-31T06:34:05;8.93;;;8.03;;
19664;SDS011;9980;51.020;7.772;2023-08-31T06:36:32;11.17;;;8.13;;
19664;SDS011;9980;51.020;7.772;2023-08-31T06:38:59;9.60;;;7.20;;
19664;SDS011;9980;51.020;7.772;2023-08-31T06:41:26;10.70;;;7.40;;
19664;SDS011;9980;51.020;7.772;2023-08-31T06:43:53;8.23;;;7.43;;
19664;SDS011;9980;51.020;7.772;2023-08-31T06:46:19;8.07;;;6.97;;
19664;SDS011;9980;51.020;7.772;2023-08-31T06:48:50;8.93;;;8.03;;
19664;SDS011;9980;51.020;7.772;2023-08-31T06:51:19;10.43;;;7.87;;
19664;SDS011;9980;51.020;7.772;2023-08-31T06:53:49;9.20;;;8.37;;
19664;SDS011;9980;51.020;7.772;2023-08-31T06:56:16;9.47;;;7.60;;
19664;SDS011;9980;51.020;7.772;2023-08-31T06:58:43;8.10;;;7.40;;
19664;SDS011;9980;51.020;7.772;2023-08-31T07:01:12;9.73;;;7.93;;
19664;SDS011;9980;51.020;7.772;2023-08-31T07:03:39;8.97;;;7.40;;
19664;SDS011;9980;51.020;7.772;2023-08-31T07:06:07;10.50;;;7.83;;
19664;SDS011;9980;51.020;7.772;2023-08-31T07:08:34;8.10;;;7.30;;
19664;SDS011;9980;51.020;7.772;2023-08-31T07:11:03;7.40;;;6.73;;
19664;SDS011;9980;51.020;7.772;2023-08-31T07:13:29;8.77;;;7.97;;
19664;SDS011;9980;51.020;7.772;2023-08-31T07:15:57;9.83;;;7.97;;
19664;SDS011;9980;51.020;7.772;2023-08-31T07:18:24;8.53;;;7.67;;
19664;SDS011;9980;51.020;7.772;2023-08-31T07:20:51;8.67;;;7.80;;
19664;SDS011;9980;51.020;7.772;2023-08-31T07:23:17;8.37;;;7.57;;
19664;SDS011;9980;51.020;7.772;2023-08-31T07:25:45;9.60;;;8.03;;
19664;SDS011;9980;51.020;7.772;2023-08-31T07:28:11;8.60;;;7.70;;
19664;SDS011;9980;51.020;7.772;2023-08-31T07:30:38;9.67;;;7.87;;
19664;SDS011;9980;51.020;7.772;2023-08-31T07:33:05;11.40;;;8.43;;
19664;SDS011;9980;51.020;7.772;2023-08-31T07:35:53;10.37;;;8.30;;
19664;SDS011;9980;51.020;7.772;2023-08-31T07:38:20;11.93;;;9.03;;
19664;SDS011;9980;51.020;7.772;2023-08-31T07:40:47;10.77;;;8.80;;
19664;SDS011;9980;51.020;7.772;2023-08-31T07:43:15;10.53;;;8.87;;
19664;SDS011;9980;51.020;7.772;2023-08-31T07:45:42;11.97;;;9.03;;
19664;SDS011;9980;51.020;7.772;2023-08-31T07:48:08;9.57;;;8.57;;
19664;SDS011;9980;51.020;7.772;2023-08-31T07:50:35;9.97;;;7.93;;
19664;SDS011;9980;51.020;7.772;2023-08-31T07:53:02;9.00;;;8.20;;
19664;SDS011;9980;51.020;7.772;2023-08-31T07:55:30;10.33;;;9.00;;
19664;SDS011;9980;51.020;7.772;2023-08-31T07:57:56;9.80;;;8.80;;
19664;SDS011;9980;51.020;7.772;2023-08-31T08:00:23;10.10;;;8.70;;
19664;SDS011;9980;51.020;7.772;2023-08-31T08:02:50;10.23;;;8.83;;
19664;SDS011;9980;51.020;7.772;2023-08-31T08:05:17;9.50;;;7.80;;
19664;SDS011;9980;51.020;7.772;2023-08-31T08:07:45;9.83;;;8.03;;
19664;SDS011;9980;51.020;7.772;2023-08-31T08:10:12;8.40;;;7.40;;
19664;SDS011;9980;51.020;7.772;2023-08-31T08:12:41;9.33;;;8.10;;
19664;SDS011;9980;51.020;7.772;2023-08-31T08:15:12;9.00;;;8.17;;
19664;SDS011;9980;51.020;7.772;2023-08-31T08:17:39;9.60;;;8.23;;
19664;SDS011;9980;51.020;7.772;2023-08-31T08:20:07;8.90;;;8.07;;
19664;SDS011;9980;51.020;7.772;2023-08-31T08:22:35;9.93;;;7.70;;
19664;SDS011;9980;51.020;7.772;2023-08-31T08:25:02;8.60;;;7.70;;
19664;SDS011;9980;51.020;7.772;2023-08-31T08:27:30;9.37;;;8.57;;
19664;SDS011;9980;51.020;7.772;2023-08-31T08:29:59;8.70;;;7.83;;
19664;SDS011;9980;51.020;7.772;2023-08-31T08:32:26;10.07;;;8.60;;
19664;SDS011;9980;51.020;7.772;2023-08-31T08:34:53;9.83;;;8.37;;
19664;SDS011;9980;51.020;7.772;2023-08-31T08:37:20;8.60;;;7.73;;
19664;SDS011;9980;51.020;7.772;2023-08-31T08:39:50;9.70;;;8.60;;
19664;SDS011;9980;51.020;7.772;2023-08-31T08:42:19;8.80;;;8.00;;
19664;SDS011;9980;51.020;7.772;2023-08-31T08:44:51;8.97;;;8.17;;
19664;SDS011;9980;51.020;7.772;2023-08-31T08:47:18;10.70;;;7.57;;
19664;SDS011;9980;51.020;7.772;2023-08-31T08:49:47;8.83;;;7.93;;
19664;SDS011;9980;51.020;7.772;2023-08-31T08:52:15;8.50;;;7.70;;
19664;SDS011;9980;51.020;7.772;2023-08-31T08:54:42;8.37;;;7.27;;
19664;SDS011;9980;51.020;7.772;2023-08-31T08:57:10;8.00;;;7.20;;
19664;SDS011;9980;51.020;7.772;2023-08-31T08:59:37;8.63;;;7.10;;
19664;SDS011;9980;51.020;7.772;2023-08-31T09:02:04;8.47;;;7.77;;
19664;SDS011;9980;51.020;7.772;2023-08-31T09:04:33;8.27;;;6.87;;
19664;SDS011;9980;51.020;7.772;2023-08-31T09:07:00;7.10;;;6.57;;
19664;SDS011;9980;51.020;7.772;2023-08-31T09:09:26;7.77;;;7.10;;
19664;SDS011;9980;51.020;7.772;2023-08-31T09:11:54;8.17;;;7.10;;
19664;SDS011;9980;51.020;7.772;2023-08-31T09:14:22;6.93;;;6.33;;
19664;SDS011;9980;51.020;7.772;2023-08-31T09:16:49;7.37;;;6.77;;
19664;SDS011;9980;51.020;7.772;2023-08-31T09:19:19;6.77;;;6.17;;
19664;SDS011;9980;51.020;7.772;2023-08-31T09:21:49;8.00;;;6.40;;
19664;SDS011;9980;51.020;7.772;2023-08-31T09:24:18;7.13;;;6.50;;
19664;SDS011;9980;51.020;7.772;2023-08-31T09:26:47;7.83;;;6.07;;
19664;SDS011;9980;51.020;7.772;2023-08-31T09:29:19;6.57;;;5.97;;
19664;SDS011;9980;51.020;7.772;2023-08-31T09:31:46;6.03;;;5.63;;
19664;SDS011;9980;51.020;7.772;2023-08-31T09:34:14;6.63;;;6.03;;
19664;SDS011;9980;51.020;7.772;2023-08-31T09:36:42;6.03;;;5.53;;
19664;SDS011;9980;51.020;7.772;2023-08-31T09:39:10;6.57;;;6.03;;
19664;SDS011;9980;51.020;7.772;2023-08-31T09:41:52;8.63;;;5.83;;
19664;SDS011;9980;51.020;7.772;2023-08-31T09:44:20;6.40;;;5.80;;
19664;SDS011;9980;51.020;7.772;2023-08-31T09:46:48;6.03;;;5.53;;
19664;SDS011;9980;51.020;7.772;2023-08-31T09:49:16;7.90;;;5.93;;
19664;SDS011;9980;51.020;7.772;2023-08-31T09:51:44;8.87;;;7.43;;
19664;SDS011;9980;51.020;7.772;2023-08-31T09:54:13;14.50;;;9.30;;
19664;SDS011;9980;51.020;7.772;2023-08-31T09:56:46;7.70;;;6.00;;
19664;SDS011;9980;51.020;7.772;2023-08-31T09:59:15;5.83;;;5.13;;
19664;SDS011;9980;51.020;7.772;2023-08-31T10:01:44;4.87;;;4.23;;
19664;SDS011;9980;51.020;7.772;2023-08-31T10:04:12;4.40;;;4.03;;
19664;SDS011;9980;51.020;7.772;2023-08-31T10:06:40;4.57;;;4.10;;
19664;SDS011;9980;51.020;7.772;2023-08-31T10:09:08;4.20;;;3.87;;
19664;SDS011;9980;51.020;7.772;2023-08-31T10:11:36;4.30;;;3.90;;
19664;SDS011;9980;51.020;7.772;2023-08-31T10:14:05;4.60;;;4.20;;
19664;SDS011;9980;51.020;7.772;2023-08-31T10:16:34;4.07;;;3.53;;
19664;SDS011;9980;51.020;7.772;2023-08-31T10:19:07;3.73;;;3.43;;
19664;SDS011;9980;51.020;7.772;2023-08-31T10:21:34;25.77;;;12.13;;
19664;SDS011;9980;51.020;7.772;2023-08-31T10:24:01;4.27;;;3.20;;
19664;SDS011;9980;51.020;7.772;2023-08-31T10:26:30;5.23;;;3.50;;
19664;SDS011;9980;51.020;7.772;2023-08-31T10:28:58;2.90;;;2.60;;
19664;SDS011;9980;51.020;7.772;2023-08-31T10:31:29;6.80;;;4.37;;
19664;SDS011;9980;51.020;7.772;2023-08-31T10:34:00;13.97;;;8.43;;
19664;SDS011;9980;51.020;7.772;2023-08-31T10:36:44;8.50;;;4.20;;
19664;SDS011;9980;51.020;7.772;2023-08-31T10:39:20;58.70;;;25.73;;
19664;SDS011;9980;51.020;7.772;2023-08-31T10:41:52;8.07;;;4.30;;
19664;SDS011;9980;51.020;7.772;2023-08-31T10:46:54;2.95;;;2.63;;
19664;SDS011;9980;51.020;7.772;2023-08-31T10:49:22;5.83;;;3.43;;
19664;SDS011;9980;51.020;7.772;2023-08-31T10:51:53;4.40;;;2.50;;
19664;SDS011;9980;51.020;7.772;2023-08-31T10:54:26;3.15;;;2.28;;
19664;SDS011;9980;51.020;7.772;2023-08-31T10:57:01;3.17;;;1.80;;
19664;SDS011;9980;51.020;7.772;2023-08-31T11:05:09;2.83;;;2.17;;
19664;SDS011;9980;51.020;7.772;2023-08-31T11:07:42;2.97;;;1.90;;
19664;SDS011;9980;51.020;7.772;2023-08-31T11:10:19;2.40;;;1.97;;
19664;SDS011;9980;51.020;7.772;2023-08-31T11:12:51;3.10;;;2.00;;
19664;SDS011;9980;51.020;7.772;2023-08-31T11:15:24;4.90;;;1.90;;
19664;SDS011;9980;51.020;7.772;2023-08-31T11:17:53;2.43;;;2.13;;
19664;SDS011;9980;51.020;7.772;2023-08-31T11:20:23;3.37;;;2.00;;
19664;SDS011;9980;51.020;7.772;2023-08-31T11:22:55;4.00;;;1.90;;
19664;SDS011;9980;51.020;7.772;2023-08-31T11:25:22;3.53;;;1.90;;
19664;SDS011;9980;51.020;7.772;2023-08-31T11:27:58;2.50;;;1.67;;
19664;SDS011;9980;51.020;7.772;2023-08-31T11:30:32;7.13;;;1.83;;
19664;SDS011;9980;51.020;7.772;2023-08-31T11:33:06;2.27;;;1.50;;
19664;SDS011;9980;51.020;7.772;2023-08-31T11:35:36;1.70;;;1.40;;
19664;SDS011;9980;51.020;7.772;2023-08-31T11:38:07;1.30;;;1.20;;
19664;SDS011;9980;51.020;7.772;2023-08-31T11:40:35;4.53;;;1.30;;
19664;SDS011;9980;51.020;7.772;2023-08-31T11:43:04;3.57;;;1.47;;
19664;SDS011;9980;51.020;7.772;2023-08-31T11:45:32;2.13;;;1.40;;
19664;SDS011;9980;51.020;7.772;2023-08-31T11:48:01;5.97;;;1.67;;
19664;SDS011;9980;51.020;7.772;2023-08-31T11:50:29;1.33;;;1.23;;
19664;SDS011;9980;51.020;7.772;2023-08-31T11:52:57;2.40;;;1.70;;
19664;SDS011;9980;51.020;7.772;2023-08-31T11:55:24;4.43;;;1.67;;
19664;SDS011;9980;51.020;7.772;2023-08-31T11:57:51;2.00;;;1.57;;
19664;SDS011;9980;51.020;7.772;2023-08-31T12:00:23;1.90;;;1.40;;
19664;SDS011;9980;51.020;7.772;2023-08-31T12:02:57;2.30;;;1.40;;
19664;SDS011;9980;51.020;7.772;2023-08-31T12:05:26;2.87;;;1.30;;
19664;SDS011;9980;51.020;7.772;2023-08-31T12:07:54;2.83;;;1.50;;
19664;SDS011;9980;51.020;7.772;2023-08-31T12:10:25;5.93;;;1.50;;
19664;SDS011;9980;51.020;7.772;2023-08-31T12:12:53;3.83;;;1.60;;
19664;SDS011;9980;51.020;7.772;2023-08-31T12:15:34;1.50;;;1.40;;
19664;SDS011;9980;51.020;7.772;2023-08-31T12:18:08;3.67;;;1.57;;
19664;SDS011;9980;51.020;7.772;2023-08-31T12:20:42;4.43;;;1.80;;
19664;SDS011;9980;51.020;7.772;2023-08-31T12:23:13;1.67;;;1.37;;
19664;SDS011;9980;51.020;7.772;2023-08-31T12:25:47;3.13;;;1.60;;
19664;SDS011;9980;51.020;7.772;2023-08-31T12:28:22;2.50;;;1.40;;
19664;SDS011;9980;51.020;7.772;2023-08-31T12:30:51;4.60;;;1.40;;
19664;SDS011;9980;51.020;7.772;2023-08-31T12:33:20;1.60;;;1.03;;
19664;SDS011;9980;51.020;7.772;2023-08-31T12:35:48;2.53;;;1.30;;
19664;SDS011;9980;51.020;7.772;2023-08-31T12:38:15;2.10;;;1.37;;
19664;SDS011;9980;51.020;7.772;2023-08-31T12:40:42;2.23;;;1.10;;
19664;SDS011;9980;51.020;7.772;2023-08-31T12:43:09;2.57;;;1.30;;
19664;SDS011;9980;51.020;7.772;2023-08-31T12:45:36;4.33;;;1.40;;
19664;SDS011;9980;51.020;7.772;2023-08-31T12:48:04;3.27;;;1.43;;
19664;SDS011;9980;51.020;7.772;2023-08-31T12:50:32;2.37;;;1.33;;
19664;SDS011;9980;51.020;7.772;2023-08-31T12:52:59;2.03;;;1.33;;
19664;SDS011;9980;51.020;7.772;2023-08-31T12:55:26;1.67;;;1.30;;
19664;SDS011;9980;51.020;7.772;2023-08-31T12:57:53;1.43;;;1.30;;
19664;SDS011;9980;51.020;7.772;2023-08-31T13:00:20;2.37;;;1.30;;
19664;SDS011;9980;51.020;7.772;2023-08-31T13:02:47;2.33;;;1.50;;
19664;SDS011;9980;51.020;7.772;2023-08-31T13:05:14;3.13;;;1.37;;
19664;SDS011;9980;51.020;7.772;2023-08-31T13:07:41;3.17;;;1.70;;
19664;SDS011;9980;51.020;7.772;2023-08-31T13:10:08;2.30;;;1.30;;
19664;SDS011;9980;51.020;7.772;2023-08-31T13:12:35;3.07;;;1.80;;
19664;SDS011;9980;51.020;7.772;2023-08-31T13:15:03;3.22;;;1.58;;
19664;SDS011;9980;51.020;7.772;2023-08-31T13:17:30;2.50;;;1.70;;
19664;SDS011;9980;51.020;7.772;2023-08-31T13:19:58;2.90;;;1.92;;
19664;SDS011;9980;51.020;7.772;2023-08-31T13:22:25;2.88;;;1.55;;
19664;SDS011;9980;51.020;7.772;2023-08-31T13:24:54;4.47;;;1.83;;
19664;SDS011;9980;51.020;7.772;2023-08-31T13:27:21;2.65;;;1.10;;
19664;SDS011;9980;51.020;7.772;2023-08-31T13:29:48;1.77;;;1.33;;
19664;SDS011;9980;51.020;7.772;2023-08-31T13:32:15;3.38;;;1.50;;
19664;SDS011;9980;51.020;7.772;2023-08-31T13:34:42;2.25;;;1.85;;
19664;SDS011;9980;51.020;7.772;2023-08-31T13:37:09;2.35;;;1.52;;
19664;SDS011;9980;51.020;7.772;2023-08-31T13:39:36;2.30;;;1.63;;
19664;SDS011;9980;51.020;7.772;2023-08-31T13:42:03;3.38;;;1.60;;
19664;SDS011;9980;51.020;7.772;2023-08-31T13:44:33;3.28;;;1.70;;
19664;SDS011;9980;51.020;7.772;2023-08-31T13:47:01;3.05;;;1.40;;
19664;SDS011;9980;51.020;7.772;2023-08-31T13:49:30;3.28;;;1.33;;
19664;SDS011;9980;51.020;7.772;2023-08-31T13:51:59;2.28;;;1.50;;
19664;SDS011;9980;51.020;7.772;2023-08-31T13:54:26;2.70;;;1.40;;
19664;SDS011;9980;51.020;7.772;2023-08-31T13:56:53;1.88;;;1.30;;
19664;SDS011;9980;51.020;7.772;2023-08-31T13:59:21;5.80;;;1.70;;
19664;SDS011;9980;51.020;7.772;2023-08-31T14:01:48;1.60;;;1.30;;
19664;SDS011;9980;51.020;7.772;2023-08-31T14:04:15;2.55;;;1.40;;
19664;SDS011;9980;51.020;7.772;2023-08-31T14:06:48;3.83;;;1.30;;
19664;SDS011;9980;51.020;7.772;2023-08-31T14:09:15;2.17;;;1.60;;
19664;SDS011;9980;51.020;7.772;2023-08-31T14:11:43;1.30;;;1.13;;
19664;SDS011;9980;51.020;7.772;2023-08-31T14:14:10;2.78;;;1.30;;
19664;SDS011;9980;51.020;7.772;2023-08-31T14:16:37;1.60;;;1.50;;
19664;SDS011;9980;51.020;7.772;2023-08-31T14:19:04;1.25;;;1.15;;
19664;SDS011;9980;51.020;7.772;2023-08-31T14:21:32;2.58;;;1.63;;
19664;SDS011;9980;51.020;7.772;2023-08-31T14:23:59;1.20;;;1.10;;
19664;SDS011;9980;51.020;7.772;2023-08-31T14:26:26;2.58;;;1.23;;
19664;SDS011;9980;51.020;7.772;2023-08-31T14:28:53;4.10;;;1.47;;
19664;SDS011;9980;51.020;7.772;2023-08-31T14:31:20;3.28;;;1.77;;
19664;SDS011;9980;51.020;7.772;2023-08-31T14:33:47;1.20;;;1.10;;
19664;SDS011;9980;51.020;7.772;2023-08-31T14:36:14;2.38;;;1.35;;
19664;SDS011;9980;51.020;7.772;2023-08-31T14:38:42;1.43;;;1.30;;
19664;SDS011;9980;51.020;7.772;2023-08-31T14:41:09;1.50;;;1.33;;
19664;SDS011;9980;51.020;7.772;2023-08-31T14:43:37;3.23;;;1.37;;
19664;SDS011;9980;51.020;7.772;2023-08-31T14:46:05;1.43;;;1.30;;
19664;SDS011;9980;51.020;7.772;2023-08-31T14:48:32;2.63;;;1.37;;
19664;SDS011;9980;51.020;7.772;2023-08-31T14:50:59;3.43;;;1.50;;
19664;SDS011;9980;51.020;7.772;2023-08-31T14:53:27;2.40;;;1.33;;
19664;SDS011;9980;51.020;7.772;2023-08-31T14:55:54;3.07;;;1.60;;
19664;SDS011;9980;51.020;7.772;2023-08-31T14:58:21;2.17;;;1.30;;
19664;SDS011;9980;51.020;7.772;2023-08-31T15:00:48;2.03;;;1.57;;
19664;SDS011;9980;51.020;7.772;2023-08-31T15:03:15;2.88;;;1.83;;
19664;SDS011;9980;51.020;7.772;2023-08-31T15:05:42;2.73;;;1.30;;
19664;SDS011;9980;51.020;7.772;2023-08-31T15:08:09;2.53;;;1.85;;
19664;SDS011;9980;51.020;7.772;2023-08-31T15:10:38;2.38;;;1.80;;
19664;SDS011;9980;51.020;7.772;2023-08-31T15:13:06;2.92;;;1.50;;
19664;SDS011;9980;51.020;7.772;2023-08-31T15:15:34;3.97;;;1.40;;
19664;SDS011;9980;51.020;7.772;2023-08-31T15:18:01;2.60;;;1.43;;
19664;SDS011;9980;51.020;7.772;2023-08-31T15:20:28;3.53;;;1.60;;